Chatuge Observed Data For Previous 48 Hours

Caption
Day and Hour Reservoir Elevation (behind dam)* Tailwater Elevation (below dam)* Average Hourly Discharge*
12/10/2018 2 AM EST 1,919.08 1,802.35 0
12/10/2018 3 AM EST 1,919.09 1,802.18 0
12/10/2018 4 AM EST 1,919.11 1,802.17 0
12/10/2018 5 AM EST 1,919.13 1,802.17 0
12/10/2018 6 AM EST 1,919.15 1,803.47 30
12/10/2018 7 AM EST 1,919.16 1,805.34 1,061
12/10/2018 8 AM EST 1,919.17 1,805.56 1,097
12/10/2018 9 AM EST 1,919.17 1,805.53 1,093
12/10/2018 10 AM EST 1,919.17 1,805.48 1,095
12/10/2018 11 AM EST 1,919.17 1,805.56 1,090
12/10/2018 12 PM EST 1,919.17 1,805.57 1,094
12/10/2018 1 PM EST 1,919.17 1,805.50 1,092
12/10/2018 2 PM EST 1,919.17 1,805.56 1,093
12/10/2018 3 PM EST 1,919.17 1,803.42 31
12/10/2018 4 PM EST 1,919.18 1,803.05 0
12/10/2018 5 PM EST 1,919.19 1,802.77 0
12/10/2018 6 PM EST 1,919.22 1,803.65 39
12/10/2018 7 PM EST 1,919.23 1,805.53 1,119
12/10/2018 8 PM EST 1,919.23 1,805.62 1,146
12/10/2018 9 PM EST 1,919.23 1,805.57 1,147
12/10/2018 10 PM EST 1,919.23 1,805.62 1,147
12/10/2018 11 PM EST 1,919.23 1,805.51 1,147
12/11/2018 12 AM EST 1,919.23 1,805.61 1,150
12/11/2018 1 AM EST 1,919.23 1,805.55 1,151
12/11/2018 2 AM EST 1,919.23 1,803.43 33
12/11/2018 3 AM EST 1,919.24 1,803.80 22
12/11/2018 4 AM EST 1,919.24 1,805.49 1,134
12/11/2018 5 AM EST 1,919.24 1,805.57 1,130
12/11/2018 6 AM EST 1,919.24 1,805.58 1,126
12/11/2018 7 AM EST 1,919.24 1,805.62 1,129
12/11/2018 8 AM EST 1,919.24 1,805.49 1,127
12/11/2018 9 AM EST 1,919.24 1,805.56 1,127
12/11/2018 10 AM EST 1,919.24 1,805.60 1,120
12/11/2018 11 AM EST 1,919.24 1,805.67 1,171
12/11/2018 12 PM EST 1,919.24 1,805.65 1,185
12/11/2018 1 PM EST 1,919.23 1,805.63 1,186
12/11/2018 2 PM EST 1,919.22 1,805.66 1,182
12/11/2018 3 PM EST 1,919.22 1,805.67 1,186
12/11/2018 4 PM EST 1,919.21 1,805.69 1,185
12/11/2018 5 PM EST 1,919.21 1,805.65 1,191
12/11/2018 6 PM EST 1,919.21 1,805.68 1,188
12/11/2018 7 PM EST 1,919.20 1,805.65 1,189
12/11/2018 8 PM EST 1,919.20 1,805.72 1,188
12/11/2018 9 PM EST 1,919.19 1,805.67 1,185
12/11/2018 10 PM EST 1,919.19 1,805.64 1,186
12/11/2018 11 PM EST 1,919.18 1,805.67 1,182
12/12/2018 12 AM EST 1,919.18 1,805.66 1,184
12/12/2018 1 AM EST 1,919.17 1,805.63 1,184
12/12/2018 2 AM EST 1,919.17 1,805.69 1,186

Elevations are in feet above sea level. Discharges are in cubic feet per second and are reported at the end of the hour.